KAOO/AOO METAR and TAF weather

Enter ICAO airport designator
Station Type Date Time Source
KAOO METAR 2018/01/19 16:53 UTC NOAA

KAOO 191653Z AUTO 21010KT 10SM CLR 02/M07 A3003 RMK AO2 SLP185 T00171072


Station Type Date Time Source
KAOO Decoded METAR 2018/01/19 16:53 UTC NOAA

ALTOONA-BLAIR COUNTY AIRPORT, PA, United States (KAOO) 40-18N 78-19W 455M
Jan 19, 2018 - 11:53 AM EST / 2018.01.19 1653 UTC
Wind: from the SSW (210 degrees) at 12 MPH (10 KT):0
Visibility: 10 mile(s):0
Sky conditions: clear
Temperature: 35.1 F (1.7 C)
Dew Point: 19.0 F (-7.2 C)
Relative Humidity: 51%
Pressure (altimeter): 30.03 in. Hg (1016 hPa)
ob: KAOO 191653Z AUTO 21010KT 10SM CLR 02/M07 A3003 RMK AO2 SLP185 T00171072
cycle: 17

Station Type Date Time Source
KAOO TAF 2018/01/19 18:33 UTC NOAA

TAF KAOO 191731Z 1918/2018 26012G18KT P6SM SCT250
FM200500 25012KT P6SM SCT250
FM201500 24015G22KT P6SM SCT250


Example: see airport list